Terminal Aerodrome Forecast
Issued by NWS

Home | Current Version | Previous Version | Text Only | Print | Product List | Glossary On
Versions: 1 2 3 4 5 6 7 8 9 10 11 12 13 14 15 16 17 18 19 20 21 22 23 24 25 26 27 28 29 30 31 32 33 34 35 36 37 38 39 40
000
FTUS41 KBOX 020304 AAB
TAFFMH
TAF AMD
KFMH 020304Z 0203/0224 24005KT P6SM SCT002
     FM020600 23005KT 1SM BR BKN002
     FM021200 22004KT 1SM BR BKN020
     FM021400 22006KT P6SM BKN130=

USA.gov is the U.S. government's official web portal to all federal, state and local government web resources and services.